Bacobi, Arizona
Current Conditions -  °F | °C
As of 10:53 AM on Monday 22 Dec 2014 (Local Time) from KPGA Reporting Station
Clear Clear  
Wind Chill: 51°   Ceiling: Unl
Heat Index: 51°   Visibility: 10mi
Dew Point: 35°   Wind: 3mph
Humidity: 54%   Direction: 120°ESE
Pressure: 29.94"   Gusts: NA
Location:  36.2405°N, 110.59°W
Report Text: KPGA 221753Z AUTO 12003KT 10SM CLR 11/02 A2994 RMK AO2 SLP125 T01060017 10111 20028 58011 TSNO
Loading
Personal Weather Stations






























Interactive Weather Map New forecast layout! Learn more

10-Day Weather Forecast

Advertisements
Track Severe Weather on mobile